createdAt,value
2022-10-17T00:02:05.899Z,100.00
2022-10-17T00:04:32.198Z,100.00
2022-10-17T00:06:58.539Z,100.00
2022-10-17T00:09:24.882Z,100.00
2022-10-17T00:11:51.219Z,100.00
2022-10-17T00:14:17.598Z,100.00
2022-10-17T00:16:44.003Z,100.00
2022-10-17T00:19:10.323Z,100.00
2022-10-17T00:21:36.677Z,100.00
2022-10-17T00:24:03.200Z,100.00
2022-10-17T00:26:29.552Z,100.00
2022-10-17T00:28:56.258Z,100.00
2022-10-17T00:31:24.001Z,100.00
2022-10-17T00:33:51.159Z,100.00
2022-10-17T00:36:21.334Z,100.00
2022-10-17T00:38:51.918Z,100.00
2022-10-17T00:41:21.059Z,100.00
2022-10-17T00:44:01.553Z,100.00
2022-10-17T00:46:38.792Z,100.00
2022-10-17T00:49:09.313Z,100.00
2022-10-17T00:51:41.738Z,100.00
2022-10-17T00:54:09.519Z,100.00
2022-10-17T00:56:35.978Z,100.00
2022-10-17T00:59:02.792Z,100.00
2022-10-17T01:01:29.386Z,100.00
2022-10-17T01:03:55.752Z,100.00
2022-10-17T01:06:22.074Z,100.00
2022-10-17T01:08:48.563Z,100.00
2022-10-17T01:11:25.092Z,100.00
2022-10-17T01:13:58.321Z,100.00
2022-10-17T01:16:39.592Z,100.00
2022-10-17T01:19:08.766Z,100.00
2022-10-17T01:21:56.956Z,99.96
2022-10-17T01:24:37.489Z,100.00
2022-10-17T01:27:34.366Z,100.00
2022-10-17T01:30:16.590Z,100.00
2022-10-17T01:33:12.502Z,100.00
2022-10-17T01:36:04.810Z,100.00
2022-10-17T01:38:43.450Z,100.00
2022-10-17T01:41:32.509Z,100.00
2022-10-17T01:44:14.071Z,100.00
2022-10-17T01:46:45.303Z,100.00
2022-10-17T01:49:16.129Z,100.00
2022-10-17T01:51:51.023Z,100.00
2022-10-17T01:54:36.106Z,100.00
2022-10-17T01:57:08.298Z,100.00
2022-10-17T01:59:45.986Z,100.00
2022-10-17T02:02:15.200Z,100.00
2022-10-17T02:04:42.471Z,100.00
2022-10-17T02:07:10.406Z,100.00
2022-10-17T02:09:37.123Z,100.00
2022-10-17T02:12:24.754Z,100.00
2022-10-17T02:15:29.336Z,100.00
2022-10-17T02:18:17.925Z,100.00
2022-10-17T02:20:53.311Z,100.00
2022-10-17T02:23:38.305Z,100.00
2022-10-17T02:26:30.379Z,100.00
2022-10-17T02:29:19.221Z,100.00
2022-10-17T02:31:49.873Z,100.00
2022-10-17T02:34:27.729Z,100.00
2022-10-17T02:36:58.243Z,100.00
2022-10-17T02:39:27.300Z,100.00
2022-10-17T02:41:57.291Z,100.00
2022-10-17T02:44:25.042Z,100.00
2022-10-17T02:47:03.086Z,100.00
2022-10-17T02:49:34.934Z,100.00
2022-10-17T02:52:14.161Z,100.00
2022-10-17T02:54:48.666Z,100.00
2022-10-17T02:57:36.793Z,100.00
2022-10-17T03:00:06.459Z,100.00
2022-10-17T03:02:45.258Z,100.00
2022-10-17T03:05:14.447Z,100.00
2022-10-17T03:07:40.758Z,100.00
2022-10-17T03:10:07.327Z,100.00
2022-10-17T03:12:33.659Z,100.00
2022-10-17T03:14:59.994Z,100.00
2022-10-17T03:17:26.346Z,100.00
2022-10-17T03:19:52.672Z,100.00
2022-10-17T03:22:18.995Z,100.00
2022-10-17T03:24:45.293Z,100.00
2022-10-17T03:27:11.873Z,100.00
2022-10-17T03:29:38.195Z,100.00
2022-10-17T03:32:04.683Z,100.00
2022-10-17T03:34:31.018Z,100.00
2022-10-17T03:36:57.348Z,100.00
2022-10-17T03:39:23.782Z,100.00
2022-10-17T03:41:50.111Z,100.00
2022-10-17T03:44:16.393Z,100.00
2022-10-17T03:46:42.752Z,100.00
2022-10-17T03:49:09.936Z,100.00
2022-10-17T03:51:36.625Z,100.00
2022-10-17T03:54:02.976Z,100.00
2022-10-17T03:56:29.339Z,100.00
2022-10-17T03:58:56.507Z,100.00
2022-10-17T04:01:23.378Z,100.00
2022-10-17T04:03:54.755Z,100.00
2022-10-17T04:06:22.205Z,100.00
2022-10-17T04:08:49.915Z,100.00
2022-10-17T04:11:21.439Z,100.00
2022-10-17T04:13:48.264Z,100.00
2022-10-17T04:16:16.930Z,100.00
2022-10-17T04:18:44.229Z,100.00
2022-10-17T04:21:11.625Z,100.00
2022-10-17T04:23:38.811Z,100.00
2022-10-17T04:26:06.004Z,100.00
2022-10-17T04:28:33.206Z,100.00
2022-10-17T04:31:08.205Z,100.00
2022-10-17T04:33:34.710Z,100.00
2022-10-17T04:36:03.669Z,100.00
2022-10-17T04:38:30.558Z,100.00
2022-10-17T04:41:00.961Z,100.00
2022-10-17T04:43:27.250Z,100.00
2022-10-17T04:45:53.592Z,100.00
2022-10-17T04:48:20.135Z,100.00
2022-10-17T04:50:56.372Z,100.00
2022-10-17T04:53:24.007Z,100.00
2022-10-17T04:55:50.849Z,100.00
2022-10-17T04:58:17.415Z,100.00
2022-10-17T05:00:43.787Z,100.00
2022-10-17T05:03:10.181Z,100.00
2022-10-17T05:05:40.783Z,100.00
2022-10-17T05:08:08.479Z,100.00
2022-10-17T05:10:39.282Z,100.00
2022-10-17T05:13:06.079Z,100.00
2022-10-17T05:15:32.745Z,100.00
2022-10-17T05:17:59.102Z,100.00
2022-10-17T05:20:26.174Z,100.00
2022-10-17T05:22:52.548Z,100.00
2022-10-17T05:25:19.320Z,100.00
2022-10-17T05:27:45.836Z,100.00
2022-10-17T05:30:12.183Z,100.00
2022-10-17T05:32:38.701Z,100.00
2022-10-17T05:35:05.584Z,100.00
2022-10-17T05:37:32.109Z,100.00
2022-10-17T05:39:58.413Z,100.00
2022-10-17T05:42:24.875Z,100.00
2022-10-17T05:44:51.232Z,100.00
2022-10-17T05:47:17.788Z,100.00
2022-10-17T05:49:48.662Z,100.00
2022-10-17T05:52:18.497Z,100.00
2022-10-17T05:54:44.830Z,100.00
2022-10-17T05:57:11.653Z,100.00
2022-10-17T05:59:37.965Z,100.00
2022-10-17T06:02:04.397Z,100.00
2022-10-17T06:04:30.745Z,100.00
2022-10-17T06:06:57.162Z,100.00
2022-10-17T06:09:24.257Z,100.00
2022-10-17T06:11:50.583Z,100.00
2022-10-17T06:14:16.957Z,100.00
2022-10-17T06:16:43.288Z,100.00
2022-10-17T06:19:09.604Z,100.00
2022-10-17T06:21:35.914Z,100.00
2022-10-17T06:24:02.246Z,100.00
2022-10-17T06:26:28.543Z,100.00
2022-10-17T06:28:55.578Z,100.00
2022-10-17T06:31:21.922Z,100.00
2022-10-17T06:33:48.234Z,100.00
2022-10-17T06:36:15.151Z,100.00
2022-10-17T06:38:41.786Z,100.00
2022-10-17T06:41:13.873Z,99.92
2022-10-17T06:43:42.024Z,99.70
2022-10-17T06:46:08.763Z,99.17
2022-10-17T06:48:35.349Z,99.10
2022-10-17T06:51:02.887Z,98.58
2022-10-17T06:53:30.815Z,97.72
2022-10-17T06:55:57.384Z,97.30
2022-10-17T06:58:23.939Z,96.53
2022-10-17T07:00:50.431Z,95.36
2022-10-17T07:03:16.862Z,95.20
2022-10-17T07:05:43.183Z,95.25
2022-10-17T07:08:09.472Z,95.31
2022-10-17T07:10:35.773Z,95.13
2022-10-17T07:13:02.083Z,94.91
2022-10-17T07:15:28.383Z,94.57
2022-10-17T07:17:54.687Z,94.31
2022-10-17T07:20:21.059Z,94.10
2022-10-17T07:22:47.344Z,93.85
2022-10-17T07:25:13.674Z,93.78
2022-10-17T07:27:40.012Z,93.88
2022-10-17T07:30:07.134Z,93.87
2022-10-17T07:32:33.525Z,93.69
2022-10-17T07:34:59.806Z,93.30
2022-10-17T07:37:26.180Z,93.29
2022-10-17T07:39:52.551Z,92.89
2022-10-17T07:42:18.855Z,92.11
2022-10-17T07:44:45.157Z,91.28
2022-10-17T07:47:11.441Z,90.62
2022-10-17T07:49:37.749Z,90.51
2022-10-17T07:52:04.089Z,89.60
2022-10-17T07:54:30.428Z,88.92
2022-10-17T07:56:56.738Z,89.28
2022-10-17T07:59:23.061Z,88.86
2022-10-17T08:01:49.366Z,88.20
2022-10-17T08:04:15.668Z,88.27
2022-10-17T08:06:42.011Z,87.46
2022-10-17T08:09:08.309Z,87.14
2022-10-17T08:11:34.627Z,86.85
2022-10-17T08:14:00.909Z,86.98
2022-10-17T08:16:27.223Z,86.63
2022-10-17T08:18:53.572Z,86.30
2022-10-17T08:21:19.971Z,87.35
2022-10-17T08:23:46.423Z,87.75
2022-10-17T08:26:13.461Z,86.92
2022-10-17T08:28:40.551Z,86.56
2022-10-17T08:31:10.337Z,86.35
2022-10-17T08:33:36.790Z,86.74
2022-10-17T08:36:05.270Z,86.35
2022-10-17T08:38:35.415Z,86.46
2022-10-17T08:41:11.859Z,86.53
2022-10-17T08:43:57.174Z,85.74
2022-10-17T08:46:31.054Z,85.52
2022-10-17T08:49:01.071Z,85.71
2022-10-17T08:51:33.693Z,85.37
2022-10-17T08:54:20.900Z,84.99
2022-10-17T08:56:51.019Z,84.58
2022-10-17T08:59:23.273Z,83.39
2022-10-17T09:02:43.455Z,83.34
2022-10-17T09:05:45.131Z,82.61
2022-10-17T09:08:35.747Z,81.68
2022-10-17T09:11:15.714Z,81.38
2022-10-17T09:13:54.247Z,81.89
2022-10-17T09:16:58.372Z,81.37
2022-10-17T09:19:35.299Z,80.35
2022-10-17T09:22:06.331Z,80.13
2022-10-17T09:24:43.110Z,79.88
2022-10-17T09:27:22.986Z,79.39
2022-10-17T09:29:54.369Z,78.64
2022-10-17T09:32:25.474Z,77.87
2022-10-17T09:34:53.552Z,76.23
2022-10-17T09:37:25.234Z,75.57
2022-10-17T09:39:51.667Z,74.76
2022-10-17T09:42:21.084Z,73.83
2022-10-17T09:44:54.591Z,73.52
2022-10-17T09:47:26.870Z,74.16
2022-10-17T09:49:53.463Z,73.96
2022-10-17T09:52:36.284Z,73.83
2022-10-17T09:55:07.186Z,73.80
2022-10-17T09:57:54.284Z,73.64
2022-10-17T10:00:26.976Z,74.87
2022-10-17T10:03:30.183Z,75.46
2022-10-17T10:06:01.187Z,74.81
2022-10-17T10:08:34.834Z,74.26
2022-10-17T10:11:05.574Z,75.31
2022-10-17T10:13:34.245Z,72.83
2022-10-17T10:16:30.610Z,70.90
2022-10-17T10:18:57.689Z,71.89
2022-10-17T10:21:26.871Z,71.74
2022-10-17T10:23:59.235Z,70.85
2022-10-17T10:26:35.042Z,71.60
2022-10-17T10:29:36.529Z,71.04
2022-10-17T10:32:11.761Z,70.89
2022-10-17T10:34:47.772Z,70.50
2022-10-17T10:37:27.168Z,70.44
2022-10-17T10:39:58.129Z,69.00
2022-10-17T10:42:28.847Z,68.59
2022-10-17T10:44:59.786Z,69.03
2022-10-17T10:47:31.148Z,67.90
2022-10-17T10:50:31.657Z,67.40
2022-10-17T10:53:21.247Z,65.94
2022-10-17T10:55:55.284Z,65.92
2022-10-17T10:58:49.225Z,65.59
2022-10-17T11:01:20.229Z,65.80
2022-10-17T11:04:04.916Z,65.62
2022-10-17T11:06:36.513Z,65.29
2022-10-17T11:09:33.112Z,64.88
2022-10-17T11:12:11.909Z,65.71
2022-10-17T11:14:40.829Z,65.99
2022-10-17T11:17:30.547Z,66.06
2022-10-17T11:20:09.285Z,66.52
2022-10-17T11:23:04.807Z,65.68
2022-10-17T11:25:37.303Z,66.01
2022-10-17T11:28:11.099Z,66.74
2022-10-17T11:31:07.085Z,66.89
2022-10-17T11:33:59.613Z,67.07
2022-10-17T11:36:30.980Z,68.06
2022-10-17T11:39:06.043Z,67.97
2022-10-17T11:41:36.757Z,67.67
2022-10-17T11:44:18.541Z,67.29
2022-10-17T11:46:50.551Z,67.65
2022-10-17T11:49:22.187Z,66.86
2022-10-17T11:52:02.411Z,66.42
2022-10-17T11:54:38.034Z,66.49
2022-10-17T11:57:32.016Z,66.68
2022-10-17T12:00:07.443Z,66.62
2022-10-17T12:02:33.929Z,67.17
2022-10-17T12:05:18.619Z,66.27
2022-10-17T12:08:08.222Z,65.67
2022-10-17T12:10:46.856Z,65.73
2022-10-17T12:13:28.498Z,65.89
2022-10-17T12:16:19.135Z,66.80
2022-10-17T12:19:19.243Z,68.63
2022-10-17T12:21:57.570Z,68.73
2022-10-17T12:24:36.491Z,69.81
2022-10-17T12:27:22.948Z,69.44
2022-10-17T12:29:50.259Z,68.27
2022-10-17T12:32:16.846Z,67.20
2022-10-17T12:34:54.523Z,66.16
2022-10-17T12:37:42.551Z,65.33
2022-10-17T12:40:36.875Z,65.19
2022-10-17T12:43:15.247Z,66.46
2022-10-17T12:45:48.567Z,67.03
2022-10-17T12:48:33.811Z,68.01
2022-10-17T12:54:10.102Z,67.47
2022-10-17T12:56:40.272Z,67.23
2022-10-17T12:59:16.514Z,68.49
2022-10-17T13:01:46.562Z,69.06
2022-10-17T13:04:13.160Z,69.67
2022-10-17T13:06:46.450Z,69.85
2022-10-17T13:09:22.627Z,70.22
2022-10-17T13:11:50.034Z,70.39
2022-10-17T13:14:19.926Z,70.47
2022-10-17T13:17:04.862Z,70.34
2022-10-17T13:19:43.427Z,69.39
2022-10-17T13:22:28.673Z,69.84
2022-10-17T13:25:08.256Z,69.61
2022-10-17T13:27:36.859Z,70.41
2022-10-17T13:30:32.000Z,70.29
2022-10-17T13:32:59.393Z,69.61
2022-10-17T13:35:58.892Z,68.98
2022-10-17T13:38:30.142Z,69.84
2022-10-17T13:41:02.005Z,70.20
2022-10-17T13:43:37.712Z,69.57
2022-10-17T13:46:19.344Z,69.59
2022-10-17T13:48:51.602Z,70.12
2022-10-17T13:51:18.052Z,70.30
2022-10-17T13:53:44.410Z,70.19
2022-10-17T13:56:33.692Z,70.70
2022-10-17T13:59:09.626Z,71.04
2022-10-17T14:01:38.155Z,71.60
2022-10-17T14:04:19.557Z,70.24
2022-10-17T14:06:49.673Z,70.08
2022-10-17T14:09:23.648Z,69.70
2022-10-17T14:12:09.740Z,69.10
2022-10-17T14:14:58.341Z,69.70
2022-10-17T14:17:29.843Z,70.62
2022-10-17T14:20:16.137Z,71.12
2022-10-17T14:22:50.434Z,70.07
2022-10-17T14:25:39.187Z,70.65
2022-10-17T14:28:11.462Z,71.37
2022-10-17T14:33:30.084Z,71.01
2022-10-17T14:35:59.244Z,71.09
2022-10-17T14:38:26.884Z,71.27
2022-10-17T14:41:41.795Z,71.66
2022-10-17T14:43:58.029Z,71.51
2022-10-17T14:46:25.371Z,72.70
2022-10-17T14:49:02.344Z,72.59
2022-10-17T14:51:32.553Z,73.99
2022-10-17T14:54:27.083Z,73.89
2022-10-17T14:56:54.059Z,73.98
2022-10-17T14:59:30.244Z,74.18
2022-10-17T15:02:06.775Z,75.31
2022-10-17T15:04:33.104Z,75.00
2022-10-17T15:06:59.414Z,75.02
2022-10-17T15:09:25.936Z,75.34
2022-10-17T15:11:52.582Z,75.78
2022-10-17T15:14:18.899Z,75.97
2022-10-17T15:16:45.204Z,75.49
2022-10-17T15:19:13.540Z,75.60
2022-10-17T15:21:44.694Z,75.58
2022-10-17T15:24:13.396Z,75.45
2022-10-17T15:26:39.753Z,75.11
2022-10-17T15:29:06.476Z,75.02
2022-10-17T15:31:33.206Z,74.87
2022-10-17T15:33:59.540Z,74.95
2022-10-17T15:36:28.419Z,74.50
2022-10-17T15:38:57.254Z,75.13
2022-10-17T15:41:26.323Z,75.13
2022-10-17T15:43:52.907Z,75.16
2022-10-17T15:46:27.905Z,75.54
2022-10-17T15:48:55.716Z,76.00
2022-10-17T15:51:23.255Z,76.37
2022-10-17T15:53:49.607Z,76.71
2022-10-17T15:56:22.887Z,77.26
2022-10-17T15:58:49.573Z,77.49
2022-10-17T16:01:22.030Z,78.22
2022-10-17T16:03:48.437Z,78.55
2022-10-17T16:06:14.885Z,78.62
2022-10-17T16:08:41.268Z,78.58
2022-10-17T16:11:15.105Z,78.14
2022-10-17T16:13:41.511Z,78.48
2022-10-17T16:16:11.912Z,78.39
2022-10-17T16:18:38.263Z,78.03
2022-10-17T16:21:04.751Z,78.54
2022-10-17T16:23:31.054Z,79.12
2022-10-17T16:25:57.364Z,79.55
2022-10-17T16:28:23.710Z,79.59
2022-10-17T16:30:50.107Z,79.15
2022-10-17T16:33:16.401Z,79.51
2022-10-17T16:35:42.802Z,79.60
2022-10-17T16:38:09.102Z,79.10
2022-10-17T16:40:38.532Z,79.09
2022-10-17T16:43:04.847Z,79.91
2022-10-17T16:45:31.364Z,79.86
2022-10-17T16:47:57.694Z,80.27
2022-10-17T16:50:24.152Z,81.84
2022-10-17T16:52:50.629Z,83.02
2022-10-17T16:55:17.179Z,83.53
2022-10-17T17:00:11.839Z,83.71
2022-10-17T17:02:38.548Z,83.43
2022-10-17T17:05:05.349Z,83.93
2022-10-17T17:07:32.121Z,84.32
2022-10-17T17:09:58.559Z,85.08
2022-10-17T17:12:24.961Z,84.49
2022-10-17T17:14:51.309Z,84.78
2022-10-17T17:17:30.276Z,85.16
2022-10-17T17:20:04.232Z,85.66
2022-10-17T17:22:30.600Z,86.35
2022-10-17T17:24:56.927Z,86.93
2022-10-17T17:27:23.234Z,87.71
2022-10-17T17:29:49.539Z,88.02
2022-10-17T17:32:15.839Z,88.23
2022-10-17T17:34:42.164Z,88.48
2022-10-17T17:37:08.468Z,88.27
2022-10-17T17:39:34.934Z,89.11
2022-10-17T17:42:01.273Z,88.53
2022-10-17T17:44:27.567Z,89.08
2022-10-17T17:46:53.866Z,89.86
2022-10-17T17:49:20.226Z,89.71
2022-10-17T17:51:46.655Z,89.54
2022-10-17T17:54:13.291Z,89.36
2022-10-17T17:56:40.181Z,89.29
2022-10-17T17:59:07.022Z,89.81
2022-10-17T18:01:34.933Z,89.96
2022-10-17T18:04:01.291Z,90.19
2022-10-17T18:06:28.098Z,90.59
2022-10-17T18:08:57.267Z,90.54
2022-10-17T18:11:24.189Z,90.74
2022-10-17T18:13:58.906Z,91.10
2022-10-17T18:16:26.147Z,91.12
2022-10-17T18:18:52.847Z,91.07
2022-10-17T18:21:19.198Z,92.02
2022-10-17T18:23:47.625Z,92.33
2022-10-17T18:26:14.375Z,92.32
2022-10-17T18:31:19.628Z,92.70
2022-10-17T18:33:46.358Z,92.84
2022-10-17T18:36:14.705Z,93.01
2022-10-17T18:38:41.848Z,93.01
2022-10-17T18:41:13.644Z,92.84
2022-10-17T18:43:41.858Z,93.50
2022-10-17T18:46:13.877Z,93.82
2022-10-17T18:48:43.247Z,94.16
2022-10-17T18:51:09.930Z,94.38
2022-10-17T18:53:40.508Z,94.66
2022-10-17T18:56:07.639Z,94.90
2022-10-17T18:58:34.019Z,94.99
2022-10-17T19:01:05.475Z,94.96
2022-10-17T19:03:32.398Z,95.19
2022-10-17T19:06:07.588Z,95.21
2022-10-17T19:08:35.064Z,95.06
2022-10-17T19:11:12.491Z,94.96
2022-10-17T19:13:39.616Z,95.14
2022-10-17T19:16:11.321Z,95.33
2022-10-17T19:18:38.106Z,95.37
2022-10-17T19:21:06.847Z,95.01
2022-10-17T19:23:33.721Z,94.91
2022-10-17T19:26:05.298Z,94.83
2022-10-17T19:28:32.644Z,94.65
2022-10-17T19:30:59.015Z,94.50
2022-10-17T19:33:25.624Z,94.27
2022-10-17T19:35:56.487Z,94.30
2022-10-17T19:38:22.853Z,94.21
2022-10-17T19:40:49.439Z,94.18
2022-10-17T19:43:15.953Z,94.30
2022-10-17T19:45:42.426Z,94.24
2022-10-17T19:48:08.912Z,94.11
2022-10-17T19:50:36.728Z,94.16
2022-10-17T19:53:05.562Z,94.38
2022-10-17T19:55:32.881Z,94.47
2022-10-17T19:57:59.202Z,94.12
2022-10-17T20:00:25.509Z,93.95
2022-10-17T20:02:51.839Z,94.22
2022-10-17T20:05:19.217Z,94.47
2022-10-17T20:07:46.046Z,94.42
2022-10-17T20:10:12.382Z,94.12
2022-10-17T20:12:38.715Z,94.29
2022-10-17T20:15:05.484Z,94.36
2022-10-17T20:17:31.963Z,94.28
2022-10-17T20:19:58.309Z,93.98
2022-10-17T20:22:24.731Z,93.89
2022-10-17T20:24:51.076Z,94.55
2022-10-17T20:27:17.412Z,94.72
2022-10-17T20:29:43.718Z,94.58
2022-10-17T20:32:10.059Z,94.33
2022-10-17T20:34:36.834Z,94.10
2022-10-17T20:37:03.369Z,94.32
2022-10-17T20:39:30.296Z,94.57
2022-10-17T20:41:56.682Z,94.58
2022-10-17T20:44:23.006Z,94.27
2022-10-17T20:47:01.200Z,93.96
2022-10-17T20:49:29.825Z,94.08
2022-10-17T20:51:56.653Z,93.91
2022-10-17T20:54:22.985Z,93.73
2022-10-17T20:56:49.590Z,93.91
2022-10-17T20:59:17.201Z,94.28
2022-10-17T21:01:44.722Z,94.21
2022-10-17T21:04:40.663Z,94.07
2022-10-17T21:06:58.604Z,93.73
2022-10-17T21:09:25.147Z,93.51
2022-10-17T21:11:51.783Z,93.76
2022-10-17T21:14:18.488Z,94.57
2022-10-17T21:16:44.839Z,94.84
2022-10-17T21:19:12.627Z,94.71
2022-10-17T21:21:41.675Z,95.15
2022-10-17T21:24:10.447Z,95.10
2022-10-17T21:26:37.523Z,95.19
2022-10-17T21:29:04.971Z,95.33
2022-10-17T21:31:35.852Z,95.27
2022-10-17T21:34:08.245Z,95.34
2022-10-17T21:36:34.790Z,95.55
2022-10-17T21:39:01.269Z,96.01
2022-10-17T21:41:29.152Z,96.06
2022-10-17T21:44:03.871Z,96.08
2022-10-17T21:46:30.495Z,95.91
2022-10-17T21:48:59.085Z,95.85
2022-10-17T21:51:26.419Z,95.90
2022-10-17T21:53:54.354Z,95.84
2022-10-17T21:56:23.271Z,95.93
2022-10-17T21:58:51.120Z,95.97
2022-10-17T22:01:20.312Z,95.98
2022-10-17T22:03:50.727Z,96.11
2022-10-17T22:09:09.954Z,96.11
2022-10-17T22:11:36.640Z,96.29
2022-10-17T22:14:05.875Z,96.40
2022-10-17T22:16:32.907Z,96.55
2022-10-17T22:19:04.812Z,96.76
2022-10-17T22:21:33.972Z,96.86
2022-10-17T22:24:03.340Z,96.85
2022-10-17T22:26:31.188Z,96.50
2022-10-17T22:28:58.009Z,96.77
2022-10-17T22:31:24.657Z,96.66
2022-10-17T22:33:51.290Z,97.01
2022-10-17T22:36:17.971Z,96.98
2022-10-17T22:38:44.475Z,96.68
2022-10-17T22:41:11.040Z,96.90
2022-10-17T22:43:37.450Z,96.68
2022-10-17T22:46:06.004Z,96.77
2022-10-17T22:48:32.668Z,96.83
2022-10-17T22:51:00.210Z,97.07
2022-10-17T22:53:27.070Z,97.13
2022-10-17T22:55:55.343Z,97.23
2022-10-17T22:58:22.193Z,97.17
2022-10-17T23:00:49.808Z,97.06
2022-10-17T23:03:16.919Z,97.26
2022-10-17T23:05:43.867Z,97.32
2022-10-17T23:08:11.331Z,97.15
2022-10-17T23:10:37.946Z,97.23
2022-10-17T23:13:05.014Z,97.32
2022-10-17T23:15:32.726Z,97.33
2022-10-17T23:18:00.273Z,97.75
2022-10-17T23:20:27.440Z,97.71
2022-10-17T23:22:53.873Z,97.60
2022-10-17T23:25:20.273Z,97.57
2022-10-17T23:27:46.613Z,97.77
2022-10-17T23:30:13.412Z,97.77
2022-10-17T23:32:40.539Z,97.71
2022-10-17T23:35:08.195Z,97.89
2022-10-17T23:37:35.259Z,97.88
2022-10-17T23:40:01.952Z,98.01
2022-10-17T23:42:28.448Z,98.32
2022-10-17T23:44:54.940Z,98.13
2022-10-17T23:47:21.450Z,98.00
2022-10-17T23:52:15.674Z,97.57
2022-10-17T23:57:13.578Z,97.29
2022-10-17T23:59:39.898Z,97.55
